createdAt,value
2018-11-26T00:02:24.875Z,0
2018-11-26T00:05:53.743Z,0
2018-11-26T00:09:21.746Z,0
2018-11-26T00:12:49.738Z,0
2018-11-26T00:16:17.627Z,0
2018-11-26T00:19:45.649Z,0
2018-11-26T00:23:13.624Z,0
2018-11-26T00:26:41.512Z,0
2018-11-26T00:30:09.471Z,0
2018-11-26T00:33:37.339Z,0
2018-11-26T00:37:05.221Z,0
2018-11-26T00:40:33.109Z,0
2018-11-26T00:44:00.974Z,0
2018-11-26T00:47:28.865Z,0
2018-11-26T00:50:56.749Z,0
2018-11-26T00:54:24.618Z,0
2018-11-26T00:57:53.494Z,0
2018-11-26T01:01:21.377Z,0
2018-11-26T01:04:49.260Z,0
2018-11-26T01:08:17.129Z,0
2018-11-26T01:11:45.010Z,0
2018-11-26T01:15:12.897Z,0
2018-11-26T01:18:40.762Z,0
2018-11-26T01:22:08.640Z,0
2018-11-26T01:25:36.520Z,0
2018-11-26T01:29:04.387Z,0
2018-11-26T01:32:32.270Z,0
2018-11-26T01:36:00.154Z,0
2018-11-26T01:39:28.131Z,0
2018-11-26T01:42:56.997Z,0
2018-11-26T01:46:25.275Z,0
2018-11-26T01:49:54.156Z,0
2018-11-26T01:53:22.022Z,0
2018-11-26T01:56:49.900Z,0
2018-11-26T02:00:17.784Z,0
2018-11-26T02:03:45.651Z,0
2018-11-26T02:07:13.533Z,0
2018-11-26T02:10:41.419Z,0
2018-11-26T02:14:09.316Z,0
2018-11-26T02:17:37.191Z,0
2018-11-26T02:21:06.062Z,0
2018-11-26T02:24:33.938Z,0
2018-11-26T02:28:01.812Z,0
2018-11-26T02:31:29.699Z,0
2018-11-26T02:34:57.577Z,0
2018-11-26T02:38:26.438Z,0
2018-11-26T02:41:54.317Z,0
2018-11-26T02:45:22.209Z,0
2018-11-26T02:48:50.081Z,0
2018-11-26T02:52:17.969Z,0
2018-11-26T02:55:45.863Z,0
2018-11-26T02:59:14.730Z,0
2018-11-26T03:02:42.613Z,0
2018-11-26T03:06:10.493Z,0
2018-11-26T03:09:38.364Z,0
2018-11-26T03:13:07.235Z,0
2018-11-26T03:16:35.124Z,0
2018-11-26T03:20:03.012Z,0
2018-11-26T03:23:30.882Z,0
2018-11-26T03:26:58.780Z,0
2018-11-26T03:30:27.642Z,0
2018-11-26T03:33:55.519Z,0
2018-11-26T03:37:23.397Z,0
2018-11-26T03:40:51.280Z,0
2018-11-26T03:44:19.153Z,0
2018-11-26T03:47:47.045Z,0
2018-11-26T03:51:14.924Z,0
2018-11-26T03:54:42.813Z,0
2018-11-26T03:58:10.735Z,0
2018-11-26T04:01:38.635Z,0
2018-11-26T04:05:06.522Z,0
2018-11-26T04:08:34.413Z,0
2018-11-26T04:12:02.303Z,0
2018-11-26T04:15:30.182Z,0
2018-11-26T04:18:58.062Z,0
2018-11-26T04:22:25.924Z,0
2018-11-26T04:25:53.802Z,0
2018-11-26T04:29:21.686Z,0
2018-11-26T04:32:49.557Z,0
2018-11-26T04:36:17.440Z,0
2018-11-26T04:39:46.306Z,0
2018-11-26T04:43:14.167Z,0
2018-11-26T04:46:43.034Z,0
2018-11-26T04:50:10.913Z,0
2018-11-26T04:53:38.795Z,0
2018-11-26T04:57:07.662Z,0
2018-11-26T05:00:35.543Z,0
2018-11-26T05:04:03.422Z,0
2018-11-26T05:07:31.288Z,0
2018-11-26T05:10:59.180Z,0
2018-11-26T05:14:28.051Z,0
2018-11-26T05:17:55.916Z,0
2018-11-26T05:21:23.800Z,0
2018-11-26T05:24:51.677Z,0
2018-11-26T05:28:19.543Z,0
2018-11-26T05:31:47.424Z,0
2018-11-26T05:35:15.311Z,0
2018-11-26T05:38:43.196Z,0
2018-11-26T05:42:12.069Z,0
2018-11-26T05:45:39.949Z,0
2018-11-26T05:49:07.819Z,0
2018-11-26T05:52:35.702Z,0
2018-11-26T05:56:03.582Z,0
2018-11-26T05:59:31.456Z,0
2018-11-26T06:02:59.346Z,0
2018-11-26T06:06:28.228Z,0
2018-11-26T06:09:57.115Z,0
2018-11-26T06:13:24.984Z,1
2018-11-26T06:16:54.860Z,1
2018-11-26T06:20:22.753Z,2
2018-11-26T06:23:50.622Z,3
2018-11-26T06:27:18.519Z,5
2018-11-26T06:30:46.405Z,9
2018-11-26T06:34:14.275Z,14
2018-11-26T06:37:42.157Z,28
2018-11-26T06:41:11.045Z,45
2018-11-26T06:44:38.932Z,68
2018-11-26T06:48:06.792Z,95
2018-11-26T06:51:34.685Z,132
2018-11-26T06:55:02.567Z,161
2018-11-26T06:58:30.436Z,195
2018-11-26T07:01:58.338Z,280
2018-11-26T07:05:26.237Z,350
2018-11-26T07:08:54.132Z,366
2018-11-26T07:12:22.014Z,370
2018-11-26T07:15:49.897Z,429
2018-11-26T07:19:17.780Z,572
2018-11-26T07:22:45.654Z,697
2018-11-26T07:26:13.567Z,820
2018-11-26T07:29:41.440Z,882
2018-11-26T07:33:09.305Z,1036
2018-11-26T07:36:37.203Z,1097
2018-11-26T07:40:05.133Z,1048
2018-11-26T07:43:33.008Z,1161
2018-11-26T07:47:00.890Z,1337
2018-11-26T07:50:29.775Z,1527
2018-11-26T07:53:57.641Z,1601
2018-11-26T07:57:25.530Z,1678
2018-11-26T08:00:53.427Z,1705
2018-11-26T08:04:21.285Z,1836
2018-11-26T08:07:49.176Z,1899
2018-11-26T08:11:17.061Z,2046
2018-11-26T08:14:44.929Z,2241
2018-11-26T08:18:12.811Z,2436
2018-11-26T08:21:40.720Z,2508
2018-11-26T08:25:08.595Z,2673
2018-11-26T08:28:36.479Z,2964
2018-11-26T08:32:05.361Z,3080
2018-11-26T08:35:33.247Z,3188
2018-11-26T08:39:01.137Z,3142
2018-11-26T08:42:30.012Z,3232
2018-11-26T08:45:57.899Z,3438
2018-11-26T08:49:25.773Z,3544
2018-11-26T08:52:53.662Z,3467
2018-11-26T08:56:21.548Z,3418
2018-11-26T08:59:49.423Z,3687
2018-11-26T09:03:17.314Z,4015
2018-11-26T09:06:45.196Z,4243
2018-11-26T09:10:13.079Z,4130
2018-11-26T09:13:40.954Z,4237
2018-11-26T09:17:08.972Z,4329
2018-11-26T09:20:36.723Z,4252
2018-11-26T09:24:04.589Z,4253
2018-11-26T09:27:33.465Z,5259
2018-11-26T09:31:01.353Z,5250
2018-11-26T09:34:29.213Z,5023
2018-11-26T09:37:57.098Z,4551
2018-11-26T09:41:24.983Z,3865
2018-11-26T09:44:52.845Z,3483
2018-11-26T09:48:20.742Z,3717
2018-11-26T09:51:48.620Z,3670
2018-11-26T09:55:16.520Z,3819
2018-11-26T09:58:44.379Z,4920
2018-11-26T10:02:12.269Z,4580
2018-11-26T10:05:40.144Z,3622
2018-11-26T10:09:08.013Z,4853
2018-11-26T10:12:35.902Z,5888
2018-11-26T10:16:03.797Z,3963
2018-11-26T10:19:31.663Z,4098
2018-11-26T10:22:59.561Z,3937
2018-11-26T10:26:27.451Z,5125
2018-11-26T10:29:55.332Z,5167
2018-11-26T10:33:23.216Z,3721
2018-11-26T10:36:51.105Z,3457
2018-11-26T10:40:18.990Z,4223
2018-11-26T10:43:46.870Z,4614
2018-11-26T10:47:14.751Z,4965
2018-11-26T10:50:42.644Z,4498
2018-11-26T10:54:10.511Z,4036
2018-11-26T10:57:38.391Z,4254
2018-11-26T11:01:06.268Z,4230
2018-11-26T11:04:34.140Z,3103
2018-11-26T11:08:03.021Z,3001
2018-11-26T11:11:30.901Z,2616
2018-11-26T11:14:58.768Z,2406
2018-11-26T11:18:26.653Z,2890
2018-11-26T11:21:54.603Z,7871
2018-11-26T11:25:22.470Z,7712
2018-11-26T11:28:50.334Z,8572
2018-11-26T11:32:18.221Z,12609
2018-11-26T11:35:46.111Z,9301
2018-11-26T11:39:13.982Z,6089
2018-11-26T11:42:41.863Z,2590
2018-11-26T11:46:09.751Z,2418
2018-11-26T11:49:37.613Z,3765
2018-11-26T11:53:05.500Z,4091
2018-11-26T11:56:33.384Z,3235
2018-11-26T12:00:01.273Z,2823
2018-11-26T12:03:29.160Z,2769
2018-11-26T12:06:57.719Z,3186
2018-11-26T12:10:25.593Z,4154
2018-11-26T12:13:53.535Z,5159
2018-11-26T12:17:21.414Z,3276
2018-11-26T12:20:49.296Z,2141
2018-11-26T12:24:18.119Z,2454
2018-11-26T12:27:45.994Z,1909
2018-11-26T12:31:13.877Z,1528
2018-11-26T12:34:41.737Z,2842
2018-11-26T12:38:11.688Z,3150
2018-11-26T12:41:39.580Z,6893
2018-11-26T12:45:07.457Z,2493
2018-11-26T12:48:36.326Z,2440
2018-11-26T12:52:04.211Z,2562
2018-11-26T12:55:33.605Z,1616
2018-11-26T12:59:01.480Z,2159
2018-11-26T13:02:29.370Z,2558
2018-11-26T13:05:57.257Z,2667
2018-11-26T13:09:25.119Z,2032
2018-11-26T13:12:53.012Z,1306
2018-11-26T13:16:21.870Z,1824
2018-11-26T13:19:49.857Z,1897
2018-11-26T13:23:17.731Z,3408
2018-11-26T13:26:45.614Z,3548
2018-11-26T13:30:14.224Z,2968
2018-11-26T13:33:42.085Z,2999
2018-11-26T13:37:10.953Z,3098
2018-11-26T13:40:38.885Z,2169
2018-11-26T13:44:06.750Z,1885
2018-11-26T13:47:34.635Z,1443
2018-11-26T13:51:02.525Z,1410
2018-11-26T13:54:30.398Z,1408
2018-11-26T13:57:58.827Z,1110
2018-11-26T14:01:26.207Z,838
2018-11-26T14:04:55.061Z,1142
2018-11-26T14:08:23.063Z,920
2018-11-26T14:11:50.952Z,1010
2018-11-26T14:15:19.106Z,809
2018-11-26T14:18:46.983Z,663
2018-11-26T14:22:14.887Z,593
2018-11-26T14:25:43.769Z,510
2018-11-26T14:29:11.644Z,419
2018-11-26T14:32:39.568Z,389
2018-11-26T14:36:07.460Z,375
2018-11-26T14:39:35.355Z,324
2018-11-26T14:43:03.249Z,251
2018-11-26T14:46:32.127Z,193
2018-11-26T14:50:00.997Z,129
2018-11-26T14:53:28.936Z,90
2018-11-26T14:56:56.872Z,85
2018-11-26T15:00:24.744Z,77
2018-11-26T15:03:52.624Z,60
2018-11-26T15:07:20.530Z,49
2018-11-26T15:10:48.395Z,39
2018-11-26T15:14:16.417Z,25
2018-11-26T15:17:45.285Z,16
2018-11-26T15:21:13.173Z,9
2018-11-26T15:24:41.035Z,5
2018-11-26T15:28:08.939Z,3
2018-11-26T15:31:36.813Z,2
2018-11-26T15:35:04.684Z,1
2018-11-26T15:38:32.568Z,1
2018-11-26T15:42:00.451Z,1
2018-11-26T15:45:28.325Z,0
2018-11-26T15:48:56.201Z,0
2018-11-26T15:52:24.082Z,0
2018-11-26T15:55:51.972Z,0
2018-11-26T15:59:19.840Z,0
2018-11-26T16:02:47.731Z,0
2018-11-26T16:06:16.619Z,0
2018-11-26T16:09:44.486Z,0
2018-11-26T16:13:12.374Z,0
2018-11-26T16:16:40.290Z,0
2018-11-26T16:20:08.263Z,0
2018-11-26T16:23:36.125Z,0
2018-11-26T16:27:04.003Z,0
2018-11-26T16:30:31.892Z,0
2018-11-26T16:33:59.758Z,0
2018-11-26T16:37:27.643Z,0
2018-11-26T16:40:55.533Z,0
2018-11-26T16:44:23.393Z,0
2018-11-26T16:47:51.292Z,0
2018-11-26T16:51:19.170Z,0
2018-11-26T16:54:47.034Z,0
2018-11-26T16:58:14.914Z,2
2018-11-26T17:01:43.795Z,0
2018-11-26T17:05:11.670Z,0
2018-11-26T17:08:39.552Z,0
2018-11-26T17:12:07.434Z,0
2018-11-26T17:15:35.320Z,0
2018-11-26T17:19:03.188Z,0
2018-11-26T17:22:32.123Z,0
2018-11-26T17:26:01.098Z,0
2018-11-26T17:29:28.963Z,0
2018-11-26T17:32:56.852Z,2
2018-11-26T17:36:24.730Z,0
2018-11-26T17:39:52.602Z,0
2018-11-26T17:43:20.486Z,0
2018-11-26T17:46:49.369Z,0
2018-11-26T17:50:17.251Z,0
2018-11-26T17:53:45.169Z,0
2018-11-26T17:57:13.053Z,0
2018-11-26T18:00:40.940Z,0
2018-11-26T18:04:08.836Z,0
2018-11-26T18:07:36.761Z,0
2018-11-26T18:11:04.639Z,0
2018-11-26T18:14:32.525Z,0
2018-11-26T18:18:00.428Z,0
2018-11-26T18:21:28.362Z,0
2018-11-26T18:24:56.241Z,0
2018-11-26T18:28:24.125Z,0
2018-11-26T18:31:52.016Z,0
2018-11-26T18:35:19.893Z,0
2018-11-26T18:38:48.788Z,0
2018-11-26T18:42:16.685Z,0
2018-11-26T18:45:46.280Z,0
2018-11-26T18:49:15.153Z,0
2018-11-26T18:52:43.060Z,0
2018-11-26T18:56:12.043Z,0
2018-11-26T18:59:39.921Z,0
2018-11-26T19:03:07.821Z,0
2018-11-26T19:06:36.421Z,0
2018-11-26T19:10:05.196Z,0
2018-11-26T19:13:34.072Z,0
2018-11-26T19:17:02.014Z,0
2018-11-26T19:20:29.899Z,0
2018-11-26T19:23:57.769Z,0
2018-11-26T19:27:25.658Z,0
2018-11-26T19:30:53.547Z,0
2018-11-26T19:34:21.418Z,0
2018-11-26T19:37:49.298Z,0
2018-11-26T19:41:17.184Z,0
2018-11-26T19:44:45.059Z,0
2018-11-26T19:48:13.117Z,0
2018-11-26T19:51:41.793Z,0
2018-11-26T19:55:13.380Z,0
2018-11-26T19:58:41.257Z,0
2018-11-26T20:02:09.140Z,0
2018-11-26T20:05:37.021Z,0
2018-11-26T20:09:04.893Z,0
2018-11-26T20:12:32.779Z,0
2018-11-26T20:16:01.655Z,0
2018-11-26T20:19:29.826Z,0
2018-11-26T20:22:57.771Z,0
2018-11-26T20:26:25.853Z,0
2018-11-26T20:29:53.730Z,0
2018-11-26T20:33:21.644Z,0
2018-11-26T20:36:49.540Z,0
2018-11-26T20:40:17.411Z,0
2018-11-26T20:43:46.286Z,0
2018-11-26T20:47:14.185Z,0
2018-11-26T20:50:42.154Z,0
2018-11-26T20:54:10.059Z,0
2018-11-26T20:57:37.959Z,0
2018-11-26T21:01:05.851Z,0
2018-11-26T21:04:33.724Z,0
2018-11-26T21:08:01.612Z,0
2018-11-26T21:11:29.495Z,0
2018-11-26T21:14:58.369Z,0
2018-11-26T21:18:26.237Z,0
2018-11-26T21:21:54.117Z,0
2018-11-26T21:25:22.026Z,0
2018-11-26T21:28:49.899Z,0
2018-11-26T21:32:17.793Z,0
2018-11-26T21:35:45.687Z,0
2018-11-26T21:39:13.567Z,0
2018-11-26T21:42:41.455Z,0
2018-11-26T21:46:09.334Z,0
2018-11-26T21:49:37.217Z,0
2018-11-26T21:53:05.144Z,0
2018-11-26T21:56:33.020Z,0
2018-11-26T22:00:00.890Z,0
2018-11-26T22:03:31.745Z,0
2018-11-26T22:06:59.629Z,0
2018-11-26T22:10:27.561Z,0
2018-11-26T22:13:56.430Z,0
2018-11-26T22:17:24.321Z,0
2018-11-26T22:20:52.210Z,0
2018-11-26T22:24:21.076Z,0
2018-11-26T22:27:48.958Z,0
2018-11-26T22:31:16.836Z,0
2018-11-26T22:34:44.705Z,0
2018-11-26T22:38:12.591Z,0
2018-11-26T22:41:40.471Z,0
2018-11-26T22:45:09.333Z,0
2018-11-26T22:48:37.206Z,0
2018-11-26T22:52:05.099Z,0
2018-11-26T22:55:32.977Z,0
2018-11-26T22:59:00.840Z,0
2018-11-26T23:02:28.733Z,0
2018-11-26T23:05:56.613Z,0
2018-11-26T23:09:24.482Z,0
2018-11-26T23:12:52.364Z,0
2018-11-26T23:16:20.244Z,0
2018-11-26T23:19:48.110Z,0
2018-11-26T23:23:15.990Z,0
2018-11-26T23:26:43.876Z,0
2018-11-26T23:30:11.738Z,0
2018-11-26T23:33:39.627Z,0
2018-11-26T23:37:07.515Z,0
2018-11-26T23:40:36.366Z,0
2018-11-26T23:44:04.247Z,0
2018-11-26T23:47:33.116Z,0
2018-11-26T23:51:01.005Z,0
2018-11-26T23:54:28.866Z,0
2018-11-26T23:57:56.745Z,0
